Dades meteomassalio
 
Diari Summary for Gener 18, 2019 Units:  Metric    English   Both
« Previous Day
Next Day »
Diari Semanal Mensual Anual Personalitzat
  Actual: Maxima: Minima: Mijana:
Temperatura: -13.4 °C -17.8 °C -18.7 °C -17.1 °C
Rosada: -16.6 °C -17.8 °C -20.6 °C -18.9 °C
Humitat: 68 % Humidity % 66 % 79 %
Velocitat del vent: 29.8 km/h 0 km/h 0 km/h 21.4 km/h
Racha vent: 22.9 km/h 0 km/h - -
Vent:NW - - WNW
Pressio: 34618.5 hPa 0 hPa 34598.1 hPa -
Pluja: 0 mm      
Historical Graphs
 
 
Tabular Data for Gener 18, 2019
Time Temperature Dew Point Pressure Wind Wind Speed Wind Gust Humidity Rainfall Rate (Hourly) solar Conditions
-17.8 °C -17.8 °C 0 hPa Calm     Humidity % 0 mm SolarRadiationWatts/m^2 W/m2 Conditions
00:04 -16.2 °C -18.1 °C 34648.9 hPa West 20.9 km/h 13.2 km/h 79 % 0 mm 0.00 W/m2 RA
00:09 -16.6 °C -18.3 °C 34648.9 hPa West 29.8 km/h 19.5 km/h 80 % 0 mm 0.00 W/m2 CLR
00:14 -16.6 °C -18.2 °C 34648.9 hPa WNW 23.8 km/h 13.5 km/h 81 % 0 mm 0.00 W/m2 CLR
00:19 -16.6 °C -18.2 °C 34648.9 hPa West 23.8 km/h 17.1 km/h 81 % 0 mm 0.00 W/m2 CLR
00:24 -16.8 °C -18.4 °C 34645.6 hPa WNW 23.8 km/h 17.9 km/h 82 % 0 mm 0.00 W/m2 CLR
00:29 -16.8 °C -18.4 °C 34648.9 hPa West 20.9 km/h 16.6 km/h 82 % 0 mm 0.00 W/m2 CLR
00:34 -16.8 °C -18.4 °C 34645.6 hPa West 23.8 km/h 18.2 km/h 82 % 0 mm 0.00 W/m2 CLR
00:39 -16.8 °C -18.4 °C 34645.6 hPa WNW 23.8 km/h 17.9 km/h 82 % 0 mm 0.00 W/m2 CLR
00:44 -16.8 °C -18.4 °C 34642.2 hPa WNW 20.9 km/h 18.8 km/h 82 % 0 mm 0.00 W/m2 CLR
00:49 -16.8 °C -18.4 °C 34642.2 hPa WNW 23.8 km/h 17.4 km/h 82 % 0 mm 0.00 W/m2 CLR
00:54 -16.8 °C -18.4 °C 34638.8 hPa WNW 23.8 km/h 18.8 km/h 82 % 0 mm 0.00 W/m2 CLR
00:59 -16.8 °C -18.3 °C 34638.8 hPa WNW 26.9 km/h 21.6 km/h 83 % 0 mm 0.00 W/m2 CLR
01:04 -17.2 °C -18.6 °C 34638.8 hPa WNW 23.8 km/h 19.2 km/h 83 % 0 mm 0.00 W/m2 CLR
01:09 -17.2 °C -18.6 °C 34635.4 hPa WNW 29.8 km/h 18.7 km/h 83 % 0 mm 0.00 W/m2 CLR
01:14 -17.2 °C -18.6 °C 34635.4 hPa West 29.8 km/h 18.8 km/h 83 % 0 mm 0.00 W/m2 CLR
01:19 -17.2 °C -18.6 °C 34632 hPa West 29.8 km/h 17.9 km/h 83 % 0 mm 0.00 W/m2 CLR
01:24 -16.8 °C -18.2 °C 34632 hPa West 29.8 km/h 20.8 km/h 84 % 0 mm 0.00 W/m2 CLR
01:29 -16.8 °C -18.2 °C 34632 hPa West 26.9 km/h 15.3 km/h 84 % 0 mm 0.00 W/m2 CLR
01:34 -16.8 °C -18.2 °C 34628.6 hPa West 23.8 km/h 16.3 km/h 84 % 0 mm 0.00 W/m2 CLR
01:39 -16.8 °C -18.2 °C 34628.6 hPa West 17.9 km/h 9.7 km/h 84 % 0 mm 0.00 W/m2 CLR
01:44 -16.8 °C -18.2 °C 34632 hPa WNW 20.9 km/h 20.3 km/h 84 % 0 mm 0.00 W/m2 CLR
01:49 -17.2 °C -18.5 °C 34632 hPa West 15.6 km/h 14.5 km/h 84 % 0 mm 0.00 W/m2 CLR
01:54 -17.2 °C -18.4 °C 34632 hPa West 20.9 km/h 8.9 km/h 85 % 0 mm 0.00 W/m2 CLR
01:59 -17.4 °C -18.7 °C 34628.6 hPa West 11.9 km/h 7.6 km/h 85 % 0 mm 0.00 W/m2 CLR
02:04 -17.4 °C -18.7 °C 34628.6 hPa West 10.3 km/h 6.9 km/h 85 % 0 mm 0.00 W/m2 CLR
02:09 -17.8 °C -19 °C 34632 hPa West 9 km/h 9.3 km/h 85 % 0 mm 0.00 W/m2 CLR
02:14 -17.8 °C -19 °C 34632 hPa WNW 9 km/h 6.9 km/h 85 % 0 mm 0.00 W/m2 CLR
02:19 -18.1 °C -19.2 °C 34632 hPa West 9 km/h 8.9 km/h 86 % 0 mm 0.00 W/m2 CLR
02:24 -18.1 °C -19.3 °C 34632 hPa West 6 km/h   85 % 0 mm 0.00 W/m2 CLR
02:27 -18.1 °C -19.3 °C 34632 hPa West 10.3 km/h 3.9 km/h 85 % 0 mm 0.00 W/m2 CLR
02:34 -18.1 °C -19.4 °C 34632 hPa Calm     84 % 0 mm 0.00 W/m2 CLR
02:39 -18.1 °C -19.3 °C 34635.4 hPa WNW 9 km/h 2.6 km/h 85 % 0 mm 0.00 W/m2 CLR
02:44 -18.4 °C -19.6 °C 34635.4 hPa Calm     85 % 0 mm 0.00 W/m2 CLR
02:49 -18.4 °C -19.6 °C 34632 hPa Calm     85 % 0 mm 0.00 W/m2 CLR
02:54 -18.4 °C -19.6 °C 34628.6 hPa Calm     86 % 0 mm 0.00 W/m2 CLR
02:59 -18.1 °C -19.2 °C 34628.6 hPa Calm     86 % 0 mm 0.00 W/m2 CLR
03:04 -18.1 °C -19.2 °C 34628.6 hPa Calm     86 % 0 mm 0.00 W/m2 CLR
03:09 -18.4 °C -19.6 °C 34628.6 hPa WSW 3.1 km/h   86 % 0 mm 0.00 W/m2 CLR
03:14 -18.4 °C -19.6 °C 34632 hPa WNW 10.3 km/h 7.6 km/h 86 % 0 mm 0.00 W/m2 CLR
03:18 -18.4 °C -19.6 °C 34632 hPa WNW 20.9 km/h 13.7 km/h 86 % 0 mm 0.00 W/m2 CLR
03:24 -18.4 °C -19.6 °C 34628.6 hPa WNW 17.9 km/h 12.2 km/h 85 % 0 mm 0.00 W/m2 CLR
03:29 -18.4 °C -19.7 °C 34628.6 hPa WNW 17.9 km/h 5.5 km/h 84 % 0 mm 0.00 W/m2 CLR
03:34 -18.4 °C -19.8 °C 34628.6 hPa West 15 km/h 5.5 km/h 83 % 0 mm 0.00 W/m2 CLR
03:39 -18.4 °C -19.8 °C 34628.6 hPa WNW 23.8 km/h 9.8 km/h 83 % 0 mm 0.00 W/m2 CLR
03:44 -18.4 °C -19.9 °C 34625.2 hPa West 9 km/h 1 km/h 82 % 0 mm 0.00 W/m2 CLR
03:49 -18.7 °C -20.2 °C 34625.2 hPa West 20.9 km/h 11.1 km/h 82 % 0 mm 0.00 W/m2 CLR
03:54 -18.7 °C -20.3 °C 34625.2 hPa WNW 26.9 km/h 18.7 km/h 81 % 0 mm 0.00 W/m2 CLR
03:58 -18.7 °C -20.3 °C 34625.2 hPa NW 26.9 km/h 25.1 km/h 81 % 0 mm 0.00 W/m2 CLR
04:04 -18.7 °C -20.4 °C 34621.9 hPa WNW 17.9 km/h 13.2 km/h 80 % 0 mm 0.00 W/m2 CLR
04:09 -18.7 °C -20.4 °C 34621.9 hPa West 15 km/h 10.3 km/h 79 % 0 mm 0.00 W/m2 CLR
04:14 -18.7 °C -20.4 °C 34621.9 hPa NW 20.9 km/h 12.9 km/h 80 % 0 mm 0.00 W/m2 CLR
04:19 -18.7 °C -20.3 °C 34621.9 hPa WNW 18.2 km/h 11.4 km/h 81 % 0 mm 0.00 W/m2 CLR
04:24 -18.7 °C -20.4 °C 34621.9 hPa WNW 26.9 km/h 18.7 km/h 80 % 0 mm 0.00 W/m2 CLR
04:29 -18.7 °C -20.4 °C 34618.5 hPa WNW 29.8 km/h 20 km/h 80 % 0 mm 0.00 W/m2 CLR
04:34 -18.7 °C -20.4 °C 34618.5 hPa West 20.8 km/h 10.1 km/h 79 % 0 mm 0.00 W/m2 CLR
04:39 -18.4 °C -20.2 °C 34618.5 hPa West 23.8 km/h 9.3 km/h 79 % 0 mm 0.00 W/m2 CLR
04:44 -18.4 °C -20.2 °C 34621.9 hPa WSW 26.9 km/h 13.2 km/h 79 % 0 mm 0.00 W/m2 CLR
04:49 -18.7 °C -20.4 °C 34618.5 hPa WSW 9 km/h 1.6 km/h 79 % 0 mm 0.00 W/m2 CLR
04:54 -18.7 °C -20.4 °C 34621.9 hPa WSW 5.1 km/h 3.4 km/h 80 % 0 mm 0.00 W/m2 CLR
04:59 -18.7 °C -20.3 °C 34618.5 hPa WSW 9 km/h 1.8 km/h 81 % 0 mm 0.00 W/m2 CLR
05:04 -18.7 °C -20.2 °C 34618.5 hPa Calm     82 % 0 mm 0.00 W/m2 CLR
05:09 -18.7 °C -20.1 °C 34615.1 hPa WSW 2.6 km/h   83 % 0 mm 0.00 W/m2 CLR
05:14 -18.7 °C -20.1 °C 34611.7 hPa Calm     83 % 0 mm 0.00 W/m2 CLR
05:19 -18.7 °C -20 °C 34615.1 hPa WSW 12.9 km/h 8 km/h 84 % 0 mm 0.00 W/m2 CLR
05:24 -18.7 °C -20 °C 34611.7 hPa WSW 18.2 km/h 13.2 km/h 84 % 0 mm 0.00 W/m2 CLR
05:29 -18.7 °C -20 °C 34611.7 hPa WSW 23.8 km/h 16.3 km/h 84 % 0 mm 0.00 W/m2 CLR
05:34 -18.7 °C -20 °C 34611.7 hPa WSW 15 km/h 9.8 km/h 84 % 0 mm 0.00 W/m2 CLR
05:39 -18.4 °C -19.7 °C 34608.3 hPa WSW 17.9 km/h 10.9 km/h 84 % 0 mm 0.00 W/m2 CLR
05:44 -18.4 °C -19.7 °C 34604.9 hPa WSW 11.9 km/h 3.7 km/h 84 % 0 mm 0.00 W/m2 CLR
05:49 -18.4 °C -19.7 °C 34601.5 hPa WSW 11.9 km/h 9.8 km/h 84 % 0 mm 0.00 W/m2 CLR
05:54 -18.4 °C -19.8 °C 34601.5 hPa WSW 11.9 km/h 11.6 km/h 83 % 0 mm 0.00 W/m2 CLR
05:59 -18.4 °C -19.8 °C 34601.5 hPa WSW 20.9 km/h 15.8 km/h 83 % 0 mm 0.00 W/m2 CLR
06:04 -18.4 °C -19.7 °C 34598.1 hPa West 15 km/h 10.9 km/h 84 % 0 mm 0.00 W/m2 CLR
06:09 -18.7 °C -20.1 °C 34598.1 hPa WSW 17.9 km/h 11.9 km/h 83 % 0 mm 0.00 W/m2 CLR
06:14 -18.7 °C -20.1 °C 34598.1 hPa WSW 11.9 km/h 10.1 km/h 83 % 0 mm 0.00 W/m2 CLR
06:19 -18.7 °C -20.1 °C 34598.1 hPa West 15.6 km/h 12.2 km/h 83 % 0 mm 0.00 W/m2 CLR
06:24 -18.7 °C -20.1 °C 34598.1 hPa West 20.9 km/h 11.9 km/h 83 % 0 mm 0.00 W/m2 CLR
06:29 -18.7 °C -20 °C 34598.1 hPa West 15 km/h 14.5 km/h 84 % 0 mm 0.00 W/m2 CLR
06:34 -18.7 °C -20 °C 34598.1 hPa WNW 15 km/h 10.6 km/h 84 % 0 mm 0.00 W/m2 CLR
06:39 -18.7 °C -20 °C 34598.1 hPa NW 20.8 km/h 15.3 km/h 84 % 0 mm 0.00 W/m2 CLR
06:44 -18.7 °C -20.1 °C 34598.1 hPa WNW 26.9 km/h 22 km/h 83 % 0 mm 0.00 W/m2 CLR
06:49 -18.7 °C -20.2 °C 34598.1 hPa WNW 29.8 km/h 22 km/h 82 % 0 mm 0.00 W/m2 CLR
06:54 -18.7 °C -20.4 °C 34601.5 hPa NW 29.8 km/h 23.3 km/h 80 % 0 mm 0.00 W/m2 CLR
06:59 -18.7 °C -20.4 °C 34604.9 hPa WNW 29.8 km/h 22 km/h 79 % 0 mm 0.00 W/m2 CLR
07:04 -18.7 °C -20.6 °C 34604.9 hPa NW 31.1 km/h 26.9 km/h 78 % 0 mm 0.00 W/m2 CLR
07:09 -18.7 °C -20.6 °C 34608.3 hPa WNW 29.8 km/h 24.8 km/h 78 % 0 mm 0.00 W/m2 CLR
07:14 -18.7 °C -20.6 °C 34608.3 hPa NW 32.8 km/h 24.8 km/h 78 % 0 mm 0.00 W/m2 CLR
07:19 -18.4 °C -20.3 °C 34611.7 hPa NW 29.8 km/h 25.6 km/h 77 % 0 mm 0.00 W/m2 CLR
07:24 -18.4 °C -20.3 °C 34608.3 hPa NW 32.8 km/h 27.7 km/h 77 % 0 mm 0.00 W/m2 CLR
07:29 -18.1 °C -20.1 °C 34608.3 hPa NW 29.8 km/h 25.1 km/h 77 % 0 mm 0.00 W/m2 CLR
07:34 -17.8 °C -19.7 °C 34608.3 hPa NW 29.8 km/h 21.6 km/h 78 % 0 mm 0.00 W/m2 CLR
07:39 -17.4 °C -19.3 °C 34608.3 hPa NW 29.8 km/h 26.2 km/h 78 % 0 mm 0.00 W/m2 CLR
07:44 -17.4 °C -19.3 °C 34611.7 hPa NW 26.9 km/h 24.3 km/h 78 % 0 mm 0.00 W/m2 CLR
07:49 -17.4 °C -19.4 °C 34611.7 hPa WNW 23.8 km/h 19.5 km/h 77 % 0 mm 0.00 W/m2 CLR
07:54 -17.8 °C -19.7 °C 34611.7 hPa WNW 29.8 km/h 22.5 km/h 78 % 0 mm 0.00 W/m2 CLR
07:59 -17.8 °C -19.7 °C 34611.7 hPa WNW 26.9 km/h 20.3 km/h 78 % 0 mm 0.00 W/m2 CLR
08:04 -18.1 °C -19.9 °C 34611.7 hPa WNW 29.8 km/h 21.2 km/h 78 % 0 mm 0.00 W/m2 CLR
08:09 -18.1 °C -19.9 °C 34611.7 hPa WNW 25.9 km/h 21.2 km/h 78 % 0 mm 0.00 W/m2 CLR
08:14 -18.1 °C -19.9 °C 34611.7 hPa WNW 29.8 km/h 22.5 km/h 78 % 0 mm 0.00 W/m2 OVC
08:19 -18.1 °C -19.9 °C 34615.1 hPa WNW 29.8 km/h 19.2 km/h 78 % 0 mm 5.00 W/m2 OVC
08:24 -18.1 °C -20.1 °C 34615.1 hPa West 17.9 km/h 10.3 km/h 77 % 0 mm 7.00 W/m2 OVC
08:29 -18.1 °C -19.9 °C 34615.1 hPa West 18.2 km/h 12.4 km/h 79 % 0 mm 11.00 W/m2 OVC
08:34 -18.4 °C -20.1 °C 34615.1 hPa West 15 km/h 9 km/h 80 % 0 mm 14.00 W/m2 OVC
08:39 -18.4 °C -19.9 °C 34615.1 hPa West 26.9 km/h 14 km/h 81 % 0 mm 18.00 W/m2 OVC
08:44 -18.4 °C -19.9 °C 34615.1 hPa West 15 km/h 11.6 km/h 82 % 0 mm 19.00 W/m2 OVC
08:49 -18.4 °C -19.9 °C 34618.5 hPa West 17.9 km/h 14.2 km/h 82 % 0 mm 21.00 W/m2 OVC
08:54 -18.4 °C -19.9 °C 34615.1 hPa West 17.9 km/h 11.4 km/h 82 % 0 mm 28.00 W/m2 OVC
08:59 -18.4 °C -19.9 °C 34618.5 hPa West 17.9 km/h 13.5 km/h 82 % 0 mm 33.00 W/m2 OVC
09:04 -18.4 °C -19.9 °C 34618.5 hPa West 23.8 km/h 18.2 km/h 82 % 0 mm 53.00 W/m2 OVC
09:07 -18.4 °C -19.9 °C 34618.5 hPa West 25.9 km/h 16.6 km/h 82 % 0 mm 62.00 W/m2 OVC
09:14 -18.4 °C -19.9 °C 34618.5 hPa WSW 17.9 km/h 11.9 km/h 82 % 0 mm 81.00 W/m2 OVC
09:19 -18.4 °C -19.9 °C 34618.5 hPa WSW 23.8 km/h 17.5 km/h 81 % 0 mm 102.00 W/m2 OVC
09:24 -17.8 °C -19.4 °C 34621.9 hPa West 20.9 km/h 15 km/h 81 % 0 mm 105.00 W/m2 BKN
09:29 -17.4 °C -19.2 °C 34621.9 hPa West 17.9 km/h 14.5 km/h 80 % 0 mm 151.00 W/m2 SCT
09:34 -17.2 °C -18.8 °C 34621.9 hPa WSW 20.9 km/h 10.3 km/h 80 % 0 mm 190.00 W/m2 CLR
09:39 -16.8 °C -18.7 °C 34621.9 hPa WSW 18.2 km/h 13.5 km/h 79 % 0 mm 218.00 W/m2 CLR
09:44 -16.6 °C -18.4 °C 34625.2 hPa WSW 11.9 km/h 2.3 km/h 78 % 0 mm 230.00 W/m2 CLR
09:49 -16.2 °C -18.2 °C 34625.2 hPa WSW 29.8 km/h 14.2 km/h 77 % 0 mm 267.00 W/m2 CLR
09:54 -15.3 °C -17.4 °C 34625.2 hPa WSW 20.9 km/h 7.7 km/h 76 % 0 mm 207.00 W/m2 CLR
09:59 -15 °C -17.3 °C 34621.9 hPa WNW 15 km/h 6.4 km/h 75 % 0 mm 195.00 W/m2 CLR
10:04 -14.7 °C -17.2 °C 34628.6 hPa WNW 35.7 km/h 17.5 km/h 73 % 0 mm 172.00 W/m2 CLR
10:09 -14.7 °C -17.4 °C 34632 hPa WNW 38.8 km/h 29.8 km/h 71 % 0 mm 121.00 W/m2 CLR
10:14 -14.7 °C -17.4 °C 34632 hPa WNW 29.8 km/h 22.2 km/h 71 % 0 mm 116.00 W/m2 CLR
10:19 -14.7 °C -17.4 °C 34632 hPa WNW 29.8 km/h 24.3 km/h 71 % 0 mm 107.00 W/m2 CLR
10:24 -14.7 °C -17.3 °C 34632 hPa WNW 25.9 km/h 17.9 km/h 72 % 0 mm 113.00 W/m2 CLR
10:29 -14.7 °C -17.2 °C 34632 hPa WNW 26.9 km/h 24.6 km/h 73 % 0 mm 149.00 W/m2 CLR
10:34 -14.7 °C -17.2 °C 34632 hPa WNW 31.1 km/h 26.4 km/h 73 % 0 mm 148.00 W/m2 CLR
10:39 -14.4 °C -16.9 °C 34628.6 hPa WNW 23.8 km/h 18.3 km/h 73 % 0 mm 213.00 W/m2 CLR
10:44 -14.4 °C -16.9 °C 34628.6 hPa NW 23.8 km/h 17.9 km/h 73 % 0 mm 315.00 W/m2 CLR
10:49 -14.4 °C -16.9 °C 34628.6 hPa NW 20.9 km/h 17.9 km/h 73 % 0 mm 404.00 W/m2 CLR
10:54 -14.1 °C -16.8 °C 34628.6 hPa WNW 23.8 km/h 18.8 km/h 71 % 0 mm 388.00 W/m2 CLR
10:59 -13.8 °C -16.6 °C 34635.4 hPa WNW 29.8 km/h 24.6 km/h 70 % 0 mm 473.00 W/m2 CLR
11:04 -13.8 °C -16.6 °C 34625.2 hPa WNW 41.7 km/h 26.4 km/h 70 % 0 mm 366.00 W/m2 CLR
11:09 -13.8 °C -16.7 °C 34628.6 hPa NW 29.8 km/h 18.7 km/h 69 % 0 mm 315.00 W/m2 CLR
11:14 -13.4 °C -16.6 °C 34628.6 hPa NW 26.9 km/h 21.2 km/h 68 % 0 mm 285.00 W/m2 CLR
11:19 -13.4 °C -16.6 °C 34628.6 hPa West 32.8 km/h 29.3 km/h 67 % 0 mm 360.00 W/m2 CLR
11:24 -13.4 °C -16.6 °C 34628.6 hPa NW 38.8 km/h 26.9 km/h 67 % 0 mm 248.00 W/m2 CLR
11:29 -13.4 °C -16.4 °C 34635.4 hPa WNW 32.8 km/h 25.9 km/h 69 % 0 mm 204.00 W/m2 CLR
11:34 -13.4 °C -16.6 °C 34632 hPa WNW 29.8 km/h 24.8 km/h 67 % 0 mm 221.00 W/m2 CLR
11:39 -13.4 °C -16.4 °C 34632 hPa NNW 32.8 km/h 27.2 km/h 69 % 0 mm 255.00 W/m2 CLR
11:44 -13.4 °C -16.3 °C 34632 hPa NW 35.7 km/h 22 km/h 70 % 0 mm 311.00 W/m2 CLR
11:49 -13.4 °C -16.6 °C 34632 hPa WNW 32.8 km/h 26.9 km/h 67 % 0 mm 325.00 W/m2 CLR
11:54 -13.2 °C -16 °C 34628.6 hPa NNW 36.2 km/h 29.8 km/h 70 % 0 mm 318.00 W/m2 CLR
11:59 -13.2 °C -16.1 °C 34625.2 hPa NNW 32.8 km/h 29.3 km/h 69 % 0 mm 339.00 W/m2 CLR
12:04 -13.2 °C -16.3 °C 34621.9 hPa NW 29.8 km/h 22.5 km/h 67 % 0 mm 346.00 W/m2 CLR
12:09 -13.2 °C -16.1 °C 34621.9 hPa NW 33.6 km/h 28 km/h 69 % 0 mm 406.00 W/m2 CLR
12:14 -13.2 °C -16.2 °C 34621.9 hPa NW 32.8 km/h 25.6 km/h 68 % 0 mm 294.00 W/m2 CLR
12:19 -13.2 °C -16.3 °C 34621.9 hPa NW 26.9 km/h 23.8 km/h 67 % 0 mm 274.00 W/m2 CLR
12:24 -13.2 °C -16.5 °C 34621.9 hPa NW 32.8 km/h 27.7 km/h 66 % 0 mm 230.00 W/m2 CLR
12:29 -13.2 °C -16.2 °C 34621.9 hPa NNW 31.1 km/h 28 km/h 68 % 0 mm 211.00 W/m2 CLR
12:34 -13.4 °C -16.6 °C 34618.5 hPa NW 29.8 km/h 22.9 km/h 68 % 0 mm 262.00 W/m2 CLR
Lo Temps de Massalio
Compliments of Weather Underground - 768 kb